Time;durP1;ratioP1;P1;durP2;ratioP2;P2;SDS_P1;SDS_P2;PMS_P1;PMS_P2;Temp;Humidity;BMP_temperature;BMP_pressure;BME280_temperature;BME280_humidity;BME280_pressure;Samples;Min_cycle;Max_cycle;Signal;HPM_P1;HPM_P2
2023/07/25 00:01:08;;;;;;;6.73;5.10;;;16.90;99.90;;;;;;5046499;28;20258;-77
2023/07/25 00:03:36;;;;;;;7.17;4.90;;;16.80;99.90;;;;;;5052712;28;20208;-76
2023/07/25 00:06:06;;;;;;;6.63;5.03;;;16.80;99.90;;;;;;5052583;28;20675;-76
2023/07/25 00:08:34;;;;;;;7.17;5.50;;;16.80;99.90;;;;;;5052566;28;20266;-76
2023/07/25 00:11:02;;;;;;;8.27;5.33;;;16.80;99.90;;;;;;5035579;28;20239;-75
2023/07/25 00:13:30;;;;;;;7.60;5.13;;;16.70;99.90;;;;;;5032398;28;20244;-77
2023/07/25 00:15:59;;;;;;;8.20;5.37;;;16.70;99.90;;;;;;5032657;28;20208;-76
2023/07/25 00:18:27;;;;;;;8.10;5.07;;;16.70;99.90;;;;;;5040689;28;20205;-77
2023/07/25 00:20:55;;;;;;;8.33;5.13;;;16.70;99.90;;;;;;5032486;28;20201;-79
2023/07/25 00:23:24;;;;;;;8.37;5.40;;;16.70;99.90;;;;;;5032050;28;20244;-76
2023/07/25 00:25:52;;;;;;;5.77;4.70;;;16.70;99.90;;;;;;5031843;28;20725;-79
2023/07/25 00:28:22;;;;;;;6.60;5.00;;;16.80;99.90;;;;;;5031767;28;20276;-75
2023/07/25 00:30:50;;;;;;;9.47;5.40;;;16.70;99.90;;;;;;5032216;28;20314;-78
2023/07/25 00:33:18;;;;;;;8.93;5.07;;;16.80;99.90;;;;;;5031762;28;20270;-77
2023/07/25 00:35:52;;;;;;;6.57;4.93;;;16.70;99.90;;;;;;5032215;28;20213;-74
2023/07/25 00:38:21;;;;;;;10.87;5.17;;;16.70;99.90;;;;;;5031888;28;20659;-81
2023/07/25 00:40:50;;;;;;;9.03;4.80;;;16.70;99.90;;;;;;5031915;28;20224;-75
2023/07/25 00:43:18;;;;;;;7.00;5.03;;;16.70;99.90;;;;;;5031735;28;20212;-76
2023/07/25 00:45:46;;;;;;;8.70;4.80;;;16.70;99.90;;;;;;5032326;28;20217;-76
2023/07/25 00:48:14;;;;;;;10.37;5.00;;;16.70;99.90;;;;;;5031749;28;20247;-74
2023/07/25 00:50:44;;;;;;;7.47;5.23;;;16.70;99.90;;;;;;5031994;28;20344;-75
2023/07/25 00:53:14;;;;;;;9.77;5.07;;;16.60;99.90;;;;;;5031471;28;20235;-74
2023/07/25 00:55:43;;;;;;;7.03;4.63;;;16.60;99.90;;;;;;5032302;28;20197;-76
2023/07/25 00:58:13;;;;;;;6.27;5.07;;;16.60;99.90;;;;;;5031485;28;20660;-75
2023/07/25 01:00:41;;;;;;;8.03;5.20;;;16.60;99.90;;;;;;5031721;28;20308;-75
2023/07/25 01:03:09;;;;;;;7.90;4.83;;;16.60;99.90;;;;;;5031445;28;20236;-75
2023/07/25 01:05:42;;;;;;;6.27;5.03;;;16.60;99.90;;;;;;5031740;28;20213;-77
2023/07/25 01:08:10;;;;;;;7.00;4.63;;;16.60;99.90;;;;;;5031525;28;20639;-81
2023/07/25 01:10:39;;;;;;;7.10;4.83;;;16.60;99.90;;;;;;5031598;28;20567;-77
2023/07/25 01:13:07;;;;;;;9.03;4.73;;;16.60;99.90;;;;;;5030793;28;20709;-75
2023/07/25 01:15:37;;;;;;;7.23;4.57;;;16.60;99.90;;;;;;5032258;28;20699;-76
2023/07/25 01:18:07;;;;;;;6.40;4.57;;;16.60;99.90;;;;;;5048070;28;20209;-74
2023/07/25 01:20:36;;;;;;;6.47;4.40;;;16.60;99.90;;;;;;5031660;28;20208;-76
2023/07/25 01:23:06;;;;;;;6.70;4.80;;;16.50;99.90;;;;;;5031321;28;20205;-74
2023/07/25 01:25:36;;;;;;;7.57;5.03;;;16.50;99.90;;;;;;5031305;28;20332;-75
2023/07/25 01:28:05;;;;;;;7.53;4.77;;;16.50;99.90;;;;;;5031094;28;20263;-76
2023/07/25 01:30:33;;;;;;;8.97;5.00;;;16.50;99.90;;;;;;5031524;28;20549;-73
2023/07/25 01:33:01;;;;;;;6.83;4.37;;;16.50;99.90;;;;;;5030759;28;20267;-74
2023/07/25 01:35:29;;;;;;;8.33;5.03;;;16.50;99.90;;;;;;5031402;28;20213;-75
2023/07/25 01:37:57;;;;;;;8.40;5.13;;;16.40;99.90;;;;;;5032361;28;20221;-73
2023/07/25 01:40:25;;;;;;;8.90;4.70;;;16.40;99.90;;;;;;5035161;28;20275;-77
2023/07/25 01:42:54;;;;;;;7.17;4.80;;;16.40;99.90;;;;;;5034494;28;20731;-75
2023/07/25 01:45:22;;;;;;;6.87;4.63;;;16.40;99.90;;;;;;5034929;28;20208;-76
2023/07/25 01:47:50;;;;;;;8.53;4.50;;;16.40;99.90;;;;;;5034777;28;20208;-76
2023/07/25 01:50:19;;;;;;;6.17;5.10;;;16.40;99.90;;;;;;5035052;28;20238;-75
2023/07/25 01:52:47;;;;;;;7.03;4.83;;;16.30;99.90;;;;;;5034488;28;20698;-77
2023/07/25 01:55:15;;;;;;;11.13;5.03;;;16.30;99.90;;;;;;5045412;28;20215;-76
2023/07/25 01:57:43;;;;;;;9.43;5.00;;;16.30;99.90;;;;;;5042543;28;20595;-75
2023/07/25 02:00:13;;;;;;;7.17;4.77;;;16.20;99.90;;;;;;5034973;28;20216;-75
2023/07/25 02:02:42;;;;;;;7.97;4.90;;;16.20;99.90;;;;;;5034076;28;20205;-73
2023/07/25 02:05:10;;;;;;;7.07;4.87;;;16.20;99.90;;;;;;5034917;28;20213;-73
2023/07/25 02:07:38;;;;;;;6.87;4.80;;;16.10;99.90;;;;;;5034458;28;20647;-76
2023/07/25 02:10:07;;;;;;;8.03;4.83;;;16.10;99.90;;;;;;5034700;28;20204;-77
2023/07/25 02:12:35;;;;;;;8.13;5.20;;;16.10;99.90;;;;;;5034220;28;20275;-77
2023/07/25 02:15:03;;;;;;;7.63;5.00;;;16.10;99.90;;;;;;5042557;28;20208;-76
2023/07/25 02:17:32;;;;;;;6.90;4.80;;;16.10;99.90;;;;;;5054488;28;20220;-73
2023/07/25 02:20:00;;;;;;;7.17;4.90;;;16.10;99.90;;;;;;5054438;28;20203;-75
2023/07/25 02:22:28;;;;;;;6.37;5.20;;;16.10;99.90;;;;;;5036177;28;20213;-75
2023/07/25 02:24:56;;;;;;;9.53;5.10;;;16.10;99.90;;;;;;5035296;28;20209;-74
2023/07/25 02:27:24;;;;;;;8.73;5.37;;;16.10;99.90;;;;;;5034623;28;20193;-75
2023/07/25 02:29:53;;;;;;;6.70;5.20;;;16.10;99.90;;;;;;5034153;28;20213;-75
2023/07/25 02:32:21;;;;;;;5.77;5.10;;;16.00;99.90;;;;;;5033587;28;20646;-74
2023/07/25 02:34:50;;;;;;;7.60;5.40;;;16.00;99.90;;;;;;5034233;28;20439;-73
2023/07/25 02:37:18;;;;;;;8.27;4.90;;;16.10;99.90;;;;;;5034169;28;20221;-75
2023/07/25 02:39:46;;;;;;;9.80;5.60;;;16.10;99.90;;;;;;5033712;28;20272;-75
2023/07/25 02:42:14;;;;;;;9.93;5.27;;;16.10;99.90;;;;;;5033845;28;20260;-76
2023/07/25 02:44:42;;;;;;;9.37;5.20;;;16.10;99.90;;;;;;5033902;28;20241;-75
2023/07/25 02:47:10;;;;;;;9.67;5.20;;;16.10;99.90;;;;;;5033655;28;20300;-76
2023/07/25 02:49:39;;;;;;;6.33;4.67;;;16.10;99.90;;;;;;5046298;28;20311;-75
2023/07/25 02:52:09;;;;;;;6.73;4.90;;;16.10;99.90;;;;;;5053615;28;20268;-76
2023/07/25 02:54:37;;;;;;;7.87;5.07;;;16.10;99.90;;;;;;5053670;28;20294;-75
2023/07/25 02:57:05;;;;;;;9.70;5.07;;;16.10;99.90;;;;;;5053668;28;20631;-75
2023/07/25 02:59:33;;;;;;;7.07;5.27;;;16.00;99.90;;;;;;5033402;28;20251;-76
2023/07/25 03:02:02;;;;;;;7.43;4.90;;;16.10;99.90;;;;;;5043529;28;20239;-76
2023/07/25 03:04:30;;;;;;;7.33;5.00;;;16.00;99.90;;;;;;5053732;28;20212;-74
2023/07/25 03:06:58;;;;;;;10.37;5.13;;;16.00;99.90;;;;;;5037080;28;20255;-76
2023/07/25 03:09:28;;;;;;;6.67;5.00;;;16.00;99.90;;;;;;5033426;28;20283;-76
2023/07/25 03:11:56;;;;;;;9.87;5.07;;;16.00;99.90;;;;;;5032955;28;20629;-75
2023/07/25 03:14:24;;;;;;;6.93;4.90;;;16.00;99.90;;;;;;5047302;28;20669;-75
2023/07/25 03:16:52;;;;;;;8.17;4.87;;;16.00;99.90;;;;;;5036752;28;20211;-75
2023/07/25 03:19:20;;;;;;;8.47;4.67;;;15.90;99.90;;;;;;5032742;28;20205;-76
2023/07/25 03:21:48;;;;;;;8.80;4.93;;;15.90;99.90;;;;;;5032843;28;20217;-76
2023/07/25 03:24:16;;;;;;;6.67;4.77;;;15.90;99.90;;;;;;5043014;28;20200;-76
2023/07/25 03:26:46;;;;;;;5.63;4.67;;;15.90;99.90;;;;;;5053127;28;20279;-75
2023/07/25 03:29:14;;;;;;;7.20;4.73;;;15.90;99.90;;;;;;5052822;28;20666;-74
2023/07/25 03:31:42;;;;;;;6.93;5.10;;;15.90;99.90;;;;;;5052560;28;20731;-76
2023/07/25 03:34:10;;;;;;;6.57;4.50;;;15.90;99.90;;;;;;5035219;28;20225;-75
2023/07/25 03:36:38;;;;;;;8.10;5.17;;;15.80;99.90;;;;;;5032969;28;20212;-76
2023/07/25 03:39:06;;;;;;;8.17;4.57;;;15.80;99.90;;;;;;5033015;28;20267;-75
2023/07/25 03:41:34;;;;;;;7.77;4.73;;;15.90;99.90;;;;;;5032805;28;21244;-75
2023/07/25 03:44:04;;;;;;;7.07;5.10;;;15.80;99.90;;;;;;5032702;28;20263;-76
2023/07/25 03:46:32;;;;;;;9.33;4.77;;;15.80;99.90;;;;;;5032461;28;20244;-76
2023/07/25 03:49:01;;;;;;;5.67;4.20;;;15.80;99.90;;;;;;5032344;28;20698;-75
2023/07/25 03:51:28;;;;;;;7.10;4.80;;;15.80;99.90;;;;;;5032550;28;20212;-77
2023/07/25 03:53:57;;;;;;;6.87;4.53;;;15.80;99.90;;;;;;5032436;28;20226;-76
2023/07/25 03:56:25;;;;;;;7.27;4.50;;;15.80;99.90;;;;;;5032790;28;20232;-76
2023/07/25 03:58:53;;;;;;;8.07;4.40;;;15.70;99.90;;;;;;5032534;28;20205;-75
2023/07/25 04:01:23;;;;;;;7.40;4.90;;;15.70;99.90;;;;;;5031792;28;20209;-74
2023/07/25 04:03:51;;;;;;;7.87;4.40;;;15.70;99.90;;;;;;5032035;28;20212;-76
2023/07/25 04:06:19;;;;;;;5.00;4.50;;;15.70;99.90;;;;;;5032286;28;20209;-75
2023/07/25 04:08:47;;;;;;;9.90;4.90;;;15.70;99.90;;;;;;5032410;28;20208;-74
2023/07/25 04:11:16;;;;;;;8.33;4.67;;;15.60;99.90;;;;;;5032521;28;20209;-76
2023/07/25 04:13:44;;;;;;;8.00;4.30;;;15.70;99.90;;;;;;5051858;28;20310;-75
2023/07/25 04:16:12;;;;;;;5.43;4.20;;;15.70;99.90;;;;;;5032116;28;20212;-75
2023/07/25 04:18:41;;;;;;;7.47;4.80;;;15.70;99.90;;;;;;5032537;28;20308;-75
2023/07/25 04:21:09;;;;;;;5.90;4.50;;;15.70;99.90;;;;;;5032400;28;20213;-75
2023/07/25 04:23:37;;;;;;;9.43;4.07;;;15.70;99.90;;;;;;5031490;28;20209;-74
2023/07/25 04:26:05;;;;;;;6.67;4.27;;;15.70;99.90;;;;;;5031729;28;20294;-77
2023/07/25 04:28:33;;;;;;;8.13;4.33;;;15.60;99.90;;;;;;5038029;28;20231;-78
2023/07/25 04:31:01;;;;;;;6.30;3.80;;;15.60;99.90;;;;;;5041259;28;20204;-81
2023/07/25 04:33:29;;;;;;;6.57;3.77;;;15.70;99.90;;;;;;5039792;28;20320;-78
2023/07/25 04:35:59;;;;;;;7.57;4.30;;;15.70;99.90;;;;;;5042684;28;21157;-76
2023/07/25 04:38:27;;;;;;;4.57;3.90;;;15.70;99.90;;;;;;5046903;28;20603;-77
2023/07/25 04:40:56;;;;;;;6.33;4.27;;;15.70;99.90;;;;;;5051509;28;20713;-78
2023/07/25 04:43:25;;;;;;;5.97;3.77;;;15.70;99.90;;;;;;5051236;28;20208;-75
2023/07/25 04:45:53;;;;;;;6.00;4.00;;;15.70;99.90;;;;;;5041773;28;20235;-75
2023/07/25 04:48:22;;;;;;;7.43;4.20;;;15.70;99.90;;;;;;5032064;28;20209;-75
2023/07/25 04:50:50;;;;;;;7.90;3.80;;;15.70;99.90;;;;;;5032073;28;20227;-76
2023/07/25 04:53:19;;;;;;;5.87;3.83;;;15.70;99.90;;;;;;5031110;28;20691;-80
2023/07/25 04:55:47;;;;;;;6.83;3.80;;;15.70;99.90;;;;;;5031579;28;20254;-76
2023/07/25 04:58:16;;;;;;;5.67;3.90;;;15.80;99.90;;;;;;5031477;28;20682;-75
2023/07/25 05:00:44;;;;;;;5.57;4.10;;;15.80;99.90;;;;;;5031534;28;20204;-75
2023/07/25 05:03:12;;;;;;;5.43;4.23;;;15.70;99.90;;;;;;5033187;28;20259;-76
2023/07/25 05:05:40;;;;;;;6.73;3.77;;;15.80;99.90;;;;;;5036786;28;20212;-77
2023/07/25 05:08:08;;;;;;;5.37;3.70;;;15.70;99.90;;;;;;5033745;28;20217;-76
2023/07/25 05:10:37;;;;;;;6.00;4.23;;;15.70;99.90;;;;;;5052292;28;20239;-77
2023/07/25 05:13:06;;;;;;;6.30;3.90;;;15.80;99.90;;;;;;5055745;28;20231;-76
2023/07/25 05:15:34;;;;;;;8.50;3.93;;;15.80;99.90;;;;;;5059270;28;20314;-76
2023/07/25 05:18:02;;;;;;;6.80;4.37;;;15.70;99.90;;;;;;5044613;28;20220;-76
2023/07/25 05:20:30;;;;;;;6.07;4.00;;;15.80;99.90;;;;;;5037888;28;20231;-76
2023/07/25 05:22:58;;;;;;;7.10;4.20;;;15.80;99.90;;;;;;5035740;28;20205;-74
2023/07/25 05:25:26;;;;;;;7.50;4.20;;;15.70;99.90;;;;;;5034506;28;20300;-78
2023/07/25 05:27:54;;;;;;;4.33;3.70;;;15.70;99.90;;;;;;5035442;28;20729;-78
2023/07/25 05:30:23;;;;;;;5.53;3.80;;;15.70;99.90;;;;;;5035714;28;20605;-76
2023/07/25 05:32:51;;;;;;;5.40;3.60;;;15.70;99.90;;;;;;5035039;28;20726;-79
2023/07/25 05:35:19;;;;;;;4.53;3.53;;;15.70;99.90;;;;;;5035462;28;20229;-78
2023/07/25 05:37:47;;;;;;;5.83;3.73;;;15.70;99.90;;;;;;5036227;28;20243;-80
2023/07/25 05:40:15;;;;;;;7.10;4.20;;;15.80;99.90;;;;;;5035562;28;20694;-74
2023/07/25 05:42:43;;;;;;;7.10;4.10;;;15.80;99.90;;;;;;5035097;28;20213;-79
2023/07/25 05:45:12;;;;;;;4.27;3.67;;;15.80;99.90;;;;;;5035337;28;20208;-77
2023/07/25 05:47:41;;;;;;;7.07;3.80;;;15.80;99.90;;;;;;5035513;28;20216;-75
2023/07/25 05:50:10;;;;;;;6.00;3.73;;;15.80;99.90;;;;;;5035547;28;20761;-81
2023/07/25 05:52:38;;;;;;;7.73;3.97;;;15.80;99.90;;;;;;5044398;28;20208;-76
2023/07/25 05:55:07;;;;;;;10.40;3.73;;;15.80;99.90;;;;;;5055641;28;20264;-76
2023/07/25 05:57:35;;;;;;;5.13;4.00;;;15.80;99.90;;;;;;5055826;28;20243;-74
2023/07/25 06:00:04;;;;;;;5.43;3.60;;;15.80;99.90;;;;;;5055597;28;20284;-73
2023/07/25 06:02:34;;;;;;;6.97;4.00;;;15.80;99.90;;;;;;5044029;28;20394;-76
2023/07/25 06:05:02;;;;;;;5.53;3.90;;;15.80;99.90;;;;;;5035522;28;20208;-75
2023/07/25 06:07:31;;;;;;;6.40;3.83;;;15.80;99.90;;;;;;5042109;28;20240;-77
2023/07/25 06:09:59;;;;;;;6.37;3.70;;;15.80;99.90;;;;;;5051320;28;20246;-76
2023/07/25 06:12:27;;;;;;;5.20;3.70;;;15.80;99.90;;;;;;5038625;28;20566;-76
2023/07/25 06:14:55;;;;;;;5.00;3.70;;;15.80;99.90;;;;;;5034559;28;20240;-75
2023/07/25 06:17:23;;;;;;;5.70;3.50;;;15.90;99.90;;;;;;5034876;28;20671;-79
2023/07/25 06:19:52;;;;;;;5.73;3.40;;;15.90;99.90;;;;;;5034699;28;20247;-78
2023/07/25 06:22:20;;;;;;;5.90;3.93;;;16.00;99.90;;;;;;5034787;28;20295;-75
2023/07/25 06:24:48;;;;;;;5.10;3.67;;;16.00;99.90;;;;;;5034093;28;20652;-77
2023/07/25 06:27:17;;;;;;;4.70;3.73;;;16.10;99.90;;;;;;5035896;28;20275;-75
2023/07/25 06:29:46;;;;;;;4.77;3.27;;;16.10;99.90;;;;;;5035530;28;20209;-77
2023/07/25 06:32:14;;;;;;;6.83;3.80;;;16.20;99.90;;;;;;5034426;28;20220;-75
2023/07/25 06:34:42;;;;;;;9.30;3.37;;;16.20;99.90;;;;;;5034680;28;20335;-77
2023/07/25 06:37:12;;;;;;;5.37;3.37;;;16.20;99.90;;;;;;5035189;28;20243;-75
2023/07/25 06:39:40;;;;;;;8.03;3.70;;;16.30;99.90;;;;;;5035005;28;20212;-74
2023/07/25 06:42:08;;;;;;;5.63;3.50;;;16.40;99.90;;;;;;5035425;28;20237;-75
2023/07/25 06:44:36;;;;;;;4.23;3.30;;;16.30;99.90;;;;;;5035891;28;20205;-74
2023/07/25 06:47:05;;;;;;;4.53;3.73;;;16.50;99.90;;;;;;5043223;28;20219;-75
2023/07/25 06:49:33;;;;;;;5.07;3.30;;;16.50;99.90;;;;;;5045370;28;20259;-74
2023/07/25 06:52:01;;;;;;;5.57;3.37;;;16.60;99.90;;;;;;5044109;28;20212;-77
2023/07/25 06:54:30;;;;;;;5.43;3.63;;;16.60;99.90;;;;;;5045644;28;20219;-75
2023/07/25 06:56:58;;;;;;;7.60;3.77;;;16.60;99.90;;;;;;5042055;28;20686;-77
2023/07/25 06:59:28;;;;;;;6.17;3.60;;;16.50;99.90;;;;;;5043515;28;20670;-75
2023/07/25 07:01:57;;;;;;;7.73;3.53;;;16.60;99.90;;;;;;5044503;28;20212;-74
2023/07/25 07:04:25;;;;;;;5.00;3.70;;;16.70;99.90;;;;;;5045525;28;20204;-74
2023/07/25 07:06:53;;;;;;;7.37;3.37;;;16.70;99.90;;;;;;5042996;28;20208;-74
2023/07/25 07:09:21;;;;;;;5.77;3.43;;;16.80;99.90;;;;;;5044470;28;20209;-75
2023/07/25 07:11:51;;;;;;;5.13;3.17;;;16.90;99.90;;;;;;5043381;28;20229;-75
2023/07/25 07:14:19;;;;;;;6.03;3.33;;;16.90;99.90;;;;;;5044011;28;20233;-73
2023/07/25 07:16:47;;;;;;;5.33;3.17;;;17.00;99.90;;;;;;5045091;28;20252;-74
2023/07/25 07:19:15;;;;;;;6.53;3.07;;;17.10;99.90;;;;;;5045581;28;20664;-74
2023/07/25 07:21:43;;;;;;;3.63;2.90;;;17.10;99.90;;;;;;5044991;28;20201;-76
2023/07/25 07:24:11;;;;;;;4.93;3.33;;;17.10;99.90;;;;;;5041874;28;20211;-74
2023/07/25 07:26:39;;;;;;;5.53;3.63;;;17.20;99.90;;;;;;5044860;28;20213;-76
2023/07/25 07:29:10;;;;;;;6.17;4.07;;;17.20;99.90;;;;;;5042740;28;20670;-74
2023/07/25 07:31:38;;;;;;;6.37;3.93;;;17.10;99.90;;;;;;5041800;28;20274;-74
2023/07/25 07:34:10;;;;;;;8.60;4.27;;;17.20;99.90;;;;;;5042730;28;20208;-74
2023/07/25 07:36:38;;;;;;;6.43;4.47;;;17.20;99.90;;;;;;5040398;28;20217;-78
2023/07/25 07:39:06;;;;;;;4.80;3.77;;;17.30;99.90;;;;;;5042215;28;20235;-74
2023/07/25 07:41:35;;;;;;;5.60;3.20;;;17.40;99.90;;;;;;5042101;28;20236;-75
2023/07/25 07:44:05;;;;;;;5.07;3.43;;;17.40;99.90;;;;;;5042020;28;20610;-74
2023/07/25 07:46:35;;;;;;;6.47;3.50;;;17.50;99.90;;;;;;5042088;28;20571;-74
2023/07/25 07:49:03;;;;;;;4.70;3.37;;;17.60;99.90;;;;;;5039527;28;20267;-74
2023/07/25 07:51:31;;;;;;;5.20;2.97;;;17.70;99.90;;;;;;5043560;28;20266;-75
2023/07/25 07:54:00;;;;;;;8.97;3.43;;;17.90;99.90;;;;;;5042884;28;20617;-76
2023/07/25 07:56:28;;;;;;;5.07;3.13;;;17.90;99.90;;;;;;5041620;28;20299;-74
2023/07/25 07:58:56;;;;;;;4.90;3.60;;;17.80;99.90;;;;;;5042371;28;20212;-75
2023/07/25 08:01:25;;;;;;;5.33;3.40;;;17.80;99.90;;;;;;5043591;28;20338;-79
2023/07/25 08:03:55;;;;;;;5.17;3.30;;;17.90;99.90;;;;;;5043522;28;20204;-77
2023/07/25 08:06:23;;;;;;;3.80;3.10;;;17.90;99.90;;;;;;5042998;28;21983;-77
2023/07/25 08:08:51;;;;;;;4.17;3.30;;;17.90;99.90;;;;;;5044482;28;20204;-75
2023/07/25 08:11:19;;;;;;;3.20;2.90;;;18.00;99.90;;;;;;5042081;28;20201;-75
2023/07/25 08:13:47;;;;;;;4.07;3.10;;;18.10;99.90;;;;;;5040740;28;20209;-76
2023/07/25 08:16:16;;;;;;;4.40;2.90;;;18.10;99.90;;;;;;5041985;28;20235;-75
2023/07/25 08:18:44;;;;;;;4.03;3.13;;;18.00;99.90;;;;;;5043044;28;20212;-77
2023/07/25 08:21:13;;;;;;;3.87;3.10;;;18.00;99.90;;;;;;5040822;28;20269;-75
2023/07/25 08:23:41;;;;;;;4.40;3.10;;;18.10;99.90;;;;;;5041156;28;20208;-75
2023/07/25 08:26:09;;;;;;;5.23;3.70;;;18.20;99.90;;;;;;5040145;28;20710;-78
2023/07/25 08:28:37;;;;;;;4.27;3.27;;;18.40;99.90;;;;;;5042029;28;20227;-76
2023/07/25 08:31:06;;;;;;;4.00;3.23;;;18.50;99.90;;;;;;5042519;28;20197;-78
2023/07/25 08:33:35;;;;;;;6.20;3.53;;;18.80;99.90;;;;;;5040850;28;20208;-80
2023/07/25 08:36:04;;;;;;;4.93;3.80;;;19.10;99.90;;;;;;5041549;28;20221;-79
2023/07/25 08:38:34;;;;;;;5.03;3.27;;;19.50;99.90;;;;;;5040614;28;20201;-77
2023/07/25 08:41:06;;;;;;;5.73;3.80;;;19.70;99.90;;;;;;5042637;28;20220;-79
2023/07/25 08:43:38;;;;;;;5.47;3.70;;;20.00;99.90;;;;;;5039425;28;20216;-78
2023/07/25 08:46:09;;;;;;;5.57;3.50;;;20.20;99.90;;;;;;5039895;28;20258;-76
2023/07/25 08:48:39;;;;;;;5.17;3.43;;;20.10;99.90;;;;;;5041698;28;20681;-76
2023/07/25 08:51:08;;;;;;;4.80;3.50;;;20.00;99.90;;;;;;5046481;28;20203;-75
2023/07/25 08:53:46;;;;;;;4.00;3.60;;;19.90;99.90;;;;;;5044486;28;20615;-77
2023/07/25 08:56:15;;;;;;;4.93;3.60;;;19.60;99.90;;;;;;5040747;28;20220;-75
2023/07/25 08:58:45;;;;;;;5.60;3.47;;;19.50;99.90;;;;;;5042070;28;20227;-74
2023/07/25 09:01:14;;;;;;;7.10;3.40;;;19.20;99.90;;;;;;5039957;28;20213;-75
2023/07/25 09:03:43;;;;;;;5.03;3.60;;;19.30;99.90;;;;;;5041049;28;20299;-80
2023/07/25 09:06:13;;;;;;;5.03;3.17;;;19.30;99.90;;;;;;5042173;28;20200;-76
2023/07/25 09:08:43;;;;;;;5.17;3.30;;;19.30;99.90;;;;;;5034306;28;20227;-75
2023/07/25 09:11:11;;;;;;;4.60;3.00;;;19.30;99.90;;;;;;5034786;28;20647;-76
2023/07/25 09:13:39;;;;;;;5.07;3.27;;;19.40;99.90;;;;;;5041315;28;20662;-76
2023/07/25 09:16:08;;;;;;;5.47;2.80;;;19.30;99.90;;;;;;5042595;28;20224;-73
2023/07/25 09:18:36;;;;;;;6.27;3.00;;;19.30;99.90;;;;;;5041919;28;20330;-77
2023/07/25 09:21:04;;;;;;;5.60;2.90;;;19.10;99.90;;;;;;5041876;28;20721;-78
2023/07/25 09:23:32;;;;;;;3.73;2.70;;;18.90;99.90;;;;;;5039934;28;20209;-79
2023/07/25 09:26:08;;;;;;;3.47;2.90;;;18.70;99.90;;;;;;5041589;28;20568;-74
2023/07/25 09:28:36;;;;;;;5.43;2.33;;;18.50;99.90;;;;;;5043085;28;20208;-80
2023/07/25 09:31:05;;;;;;;5.13;2.57;;;18.50;99.90;;;;;;5042243;28;20251;-81
2023/07/25 09:33:33;;;;;;;3.77;2.40;;;18.40;99.90;;;;;;5043324;28;20204;-77
2023/07/25 09:36:02;;;;;;;4.40;2.30;;;18.30;99.90;;;;;;5045075;28;20637;-77
2023/07/25 09:38:30;;;;;;;3.77;2.20;;;18.20;99.90;;;;;;5041924;28;20228;-76
2023/07/25 09:40:58;;;;;;;4.07;2.53;;;18.30;99.90;;;;;;5041694;28;20216;-79
2023/07/25 09:43:29;;;;;;;4.50;2.40;;;18.20;99.90;;;;;;5039902;28;20208;-75
2023/07/25 09:45:57;;;;;;;4.03;2.53;;;18.20;99.90;;;;;;5039708;28;20250;-76
2023/07/25 09:48:25;;;;;;;2.57;2.13;;;18.00;99.90;;;;;;5042303;28;20198;-78
2023/07/25 09:50:54;;;;;;;3.50;2.37;;;18.00;99.90;;;;;;5043546;28;20567;-76
2023/07/25 09:53:22;;;;;;;3.93;2.40;;;18.10;99.90;;;;;;5035078;28;20292;-77
2023/07/25 09:55:50;;;;;;;2.73;2.30;;;18.10;99.90;;;;;;5035746;28;20205;-79
2023/07/25 09:58:19;;;;;;;2.63;2.30;;;18.10;99.90;;;;;;5035865;28;20205;-77
2023/07/25 10:00:49;;;;;;;4.17;2.60;;;18.10;99.90;;;;;;5045347;28;20267;-79
2023/07/25 10:03:20;;;;;;;4.07;3.23;;;18.30;99.90;;;;;;5047830;28;20204;-76
2023/07/25 10:05:49;;;;;;;2.67;2.30;;;18.30;99.90;;;;;;5038844;28;20232;-77
2023/07/25 10:08:18;;;;;;;3.37;2.30;;;18.30;99.90;;;;;;5040322;28;20220;-79
2023/07/25 10:10:46;;;;;;;2.70;2.50;;;18.30;99.90;;;;;;5041758;28;20216;-79
2023/07/25 10:13:15;;;;;;;2.57;2.37;;;18.30;99.90;;;;;;5041720;28;20209;-78
2023/07/25 10:15:44;;;;;;;3.67;2.37;;;18.30;99.90;;;;;;5045670;28;20220;-76
2023/07/25 10:18:21;;;;;;;4.10;2.40;;;18.30;99.90;;;;;;5042203;28;20213;-77
2023/07/25 10:20:50;;;;;;;5.37;2.40;;;18.30;99.90;;;;;;5040630;28;20635;-76
2023/07/25 10:23:19;;;;;;;2.23;2.00;;;18.50;99.90;;;;;;5042834;28;20263;-77
2023/07/25 10:25:47;;;;;;;5.47;2.90;;;18.50;99.90;;;;;;5043706;28;20213;-76
2023/07/25 10:28:21;;;;;;;3.50;2.50;;;18.60;99.90;;;;;;5049939;28;20220;-75
2023/07/25 10:30:49;;;;;;;3.23;2.20;;;18.60;99.90;;;;;;5038851;28;20212;-76
2023/07/25 10:33:19;;;;;;;3.73;2.00;;;18.70;99.90;;;;;;5037935;28;20205;-76
2023/07/25 10:35:53;;;;;;;2.40;2.10;;;18.60;99.90;;;;;;5037946;28;20263;-79
2023/07/25 10:38:23;;;;;;;2.30;2.07;;;18.70;99.90;;;;;;5037543;28;20756;-78
2023/07/25 10:40:54;;;;;;;2.20;2.00;;;18.80;99.90;;;;;;5038067;28;20635;-78
2023/07/25 10:43:23;;;;;;;3.40;2.20;;;18.90;99.90;;;;;;5055642;28;20212;-75
2023/07/25 10:45:52;;;;;;;3.17;2.30;;;19.00;99.90;;;;;;5053495;28;20666;-80
2023/07/25 10:48:30;;;;;;;3.43;2.43;;;19.00;99.90;;;;;;5034981;28;20208;-81
2023/07/25 10:50:59;;;;;;;3.67;2.43;;;19.00;99.90;;;;;;5036552;28;20557;-76
2023/07/25 10:53:27;;;;;;;3.50;2.40;;;19.20;99.90;;;;;;5037138;28;20284;-76
2023/07/25 10:56:17;;;;;;;2.57;2.27;;;19.30;99.90;;;;;;5041525;28;20216;-77
2023/07/25 10:59:03;;;;;;;3.57;2.23;;;19.50;99.90;;;;;;5050003;28;20205;-78
2023/07/25 11:01:39;;;;;;;2.40;2.10;;;19.70;99.90;;;;;;5059041;28;20542;-79
2023/07/25 11:04:29;;;;;;;3.13;1.80;;;19.80;99.90;;;;;;5056382;28;20207;-76
2023/07/25 11:06:59;;;;;;;3.57;2.10;;;20.00;99.90;;;;;;5036056;28;20209;-78
2023/07/25 11:09:27;;;;;;;3.23;2.17;;;20.00;99.90;;;;;;5036721;28;20213;-76
2023/07/25 11:11:57;;;;;;;2.37;1.87;;;19.90;99.90;;;;;;5039963;28;20204;-76
2023/07/25 11:14:25;;;;;;;2.50;2.13;;;20.10;99.90;;;;;;5034668;28;20201;-77
2023/07/25 11:16:54;;;;;;;2.80;2.30;;;20.20;99.90;;;;;;5034783;28;20256;-79
2023/07/25 11:19:28;;;;;;;2.13;1.87;;;20.40;99.90;;;;;;5034560;28;20239;-78
2023/07/25 11:21:56;;;;;;;3.93;2.00;;;20.70;99.90;;;;;;5036690;28;20271;-76
2023/07/25 11:24:24;;;;;;;3.07;2.13;;;21.00;99.90;;;;;;5049117;28;20266;-76
2023/07/25 11:26:52;;;;;;;2.87;2.13;;;21.00;99.90;;;;;;5051477;28;20706;-78
2023/07/25 11:29:22;;;;;;;2.30;2.10;;;21.10;99.90;;;;;;5046479;28;20205;-77
2023/07/25 11:31:50;;;;;;;3.83;2.07;;;21.10;99.90;;;;;;5045276;28;20299;-78
2023/07/25 11:34:20;;;;;;;2.67;2.10;;;21.20;99.90;;;;;;5046495;28;20204;-76
2023/07/25 11:36:50;;;;;;;3.27;2.00;;;21.10;99.90;;;;;;5043902;28;20224;-77
2023/07/25 11:39:19;;;;;;;3.47;2.30;;;21.30;99.90;;;;;;5046429;28;20211;-76
2023/07/25 11:41:47;;;;;;;6.23;2.57;;;21.30;99.90;;;;;;5050447;28;20228;-77
2023/07/25 11:44:16;;;;;;;2.20;1.90;;;21.20;99.90;;;;;;5044510;28;20197;-80
2023/07/25 11:46:50;;;;;;;1.87;1.70;;;20.90;99.90;;;;;;5050761;28;20268;-77
2023/07/25 11:49:20;;;;;;;4.13;1.63;;;20.70;99.90;;;;;;5048921;28;20670;-75
2023/07/25 11:52:10;;;;;;;2.13;1.47;;;20.90;99.90;;;;;;5047402;28;20232;-78
2023/07/25 11:54:39;;;;;;;2.50;1.67;;;20.90;99.90;;;;;;5047901;28;20264;-79
2023/07/25 11:57:10;;;;;;;2.60;1.67;;;21.00;99.90;;;;;;5044397;28;20231;-76
2023/07/25 11:59:43;;;;;;;2.67;1.80;;;20.90;99.90;;;;;;5043839;28;20231;-78
2023/07/25 12:02:12;;;;;;;4.83;1.87;;;20.60;99.90;;;;;;5046423;28;20269;-79
2023/07/25 12:04:44;;;;;;;1.90;1.50;;;20.40;99.90;;;;;;5046497;28;20203;-77
2023/07/25 12:07:15;;;;;;;6.07;1.97;;;20.40;99.90;;;;;;5042347;28;20216;-77
2023/07/25 12:09:52;;;;;;;2.03;1.67;;;20.00;99.90;;;;;;5044520;28;20268;-76
2023/07/25 12:12:21;;;;;;;3.20;1.77;;;19.70;99.90;;;;;;5045271;28;20201;-77
2023/07/25 12:14:57;;;;;;;3.00;1.80;;;19.60;99.90;;;;;;5041835;28;20697;-75
2023/07/25 12:17:43;;;;;;;2.23;1.90;;;19.40;99.90;;;;;;5044141;28;20251;-77
2023/07/25 12:20:19;;;;;;;2.53;1.90;;;19.20;99.90;;;;;;5046974;28;20204;-77
2023/07/25 12:22:49;;;;;;;3.33;1.87;;;19.50;99.90;;;;;;5042029;28;20208;-77
2023/07/25 12:25:18;;;;;;;3.87;2.00;;;19.80;99.90;;;;;;5041475;28;20205;-79
2023/07/25 12:27:48;;;;;;;3.93;1.97;;;20.30;99.90;;;;;;5046993;28;20725;-77
2023/07/25 12:30:16;;;;;;;6.07;2.10;;;20.50;99.90;;;;;;5041513;28;20208;-78
2023/07/25 12:32:45;;;;;;;2.80;2.07;;;20.80;99.90;;;;;;5043497;28;20654;-77
2023/07/25 12:35:13;;;;;;;4.73;1.93;;;21.10;99.90;;;;;;5042467;28;20209;-76
2023/07/25 12:37:41;;;;;;;3.60;2.00;;;20.90;99.90;;;;;;5042622;28;20228;-76
2023/07/25 12:40:12;;;;;;;3.40;1.77;;;21.20;99.90;;;;;;5043978;28;20291;-77
2023/07/25 12:42:40;;;;;;;2.67;1.73;;;21.40;99.90;;;;;;5044282;28;20255;-77
2023/07/25 12:45:09;;;;;;;4.90;1.97;;;21.50;99.90;;;;;;5034513;28;20213;-76
2023/07/25 12:47:38;;;;;;;3.10;2.00;;;21.20;99.90;;;;;;5033696;28;20271;-76
2023/07/25 12:50:08;;;;;;;2.30;2.00;;;21.00;99.90;;;;;;5033627;28;20706;-77
2023/07/25 12:52:37;;;;;;;3.40;2.17;;;20.70;99.90;;;;;;5032131;28;20205;-77
2023/07/25 12:55:05;;;;;;;3.57;1.90;;;20.60;99.90;;;;;;5038241;28;20200;-76